Latest Weather Observations for Giles*

IDD60801

Issued at 11:01 pm CST Monday 26 June 2017 (issued every 30 minutes, with the page automatically refreshed every 10 minutes)

About weather observations | Map of weather stations | Latest weather observations for NT | Other Formats
Station Details ID: 013017 Name: GILES METEOROLOGICAL OFFICE Lat: -25.03 Lon: 128.30 Height: 598.0 m
Data from the previous 72 hours. | See also: Recent months at Giles*

* Giles observations are collected in the South Australia time zone, which includes daylight saving in the summer period. Therefore, Rain since 9am value is with respect to South Australia local time.

Date/Time
CST
Temp
°C
App
Temp
°C
Dew
Point
°C
Rel
Hum
%
Delta-T
°C
Wind Press
QNH
hPa
Press
MSL
hPa
Rain since
9am
mm
Dir  Spd
km/h
Gust
km/h
Spd
kts
Gust
kts
26/11:00pm 8.9 6.9 8.5 97 0.2 ESE 9 13 5 7 1020.9 1019.9 -
26/10:30pm 9.0 6.6 8.6 97 0.2 ESE 11 13 6 7 1021.0 1020.0 -
26/10:00pm 9.1 7.1 8.7 97 0.2 SE 9 11 5 6 1020.9 1019.9 -
26/09:30pm 9.4 7.9 9.0 97 0.2 SSE 7 9 4 5 1021.0 1020.0 -
26/09:00pm 9.8 7.9 9.0 95 0.4 SSE 9 11 5 6 1020.9 1019.9 8.2
26/08:30pm 10.0 7.8 9.2 95 0.4 SSE 11 13 6 7 1020.6 1019.7 -
26/08:00pm 10.2 8.0 9.4 95 0.4 SSE 11 13 6 7 1020.1 1019.2 -
26/07:30pm 10.8 9.1 9.8 93 0.5 SSE 9 9 5 5 1019.6 1018.6 -
26/07:00pm 12.1 10.8 10.0 87 1.1 ESE 7 9 4 5 1019.3 1018.3 -
26/06:30pm 12.9 11.3 10.3 84 1.4 ENE 9 11 5 6 1018.8 1017.9 -
26/06:00pm 14.0 12.1 10.5 79 1.9 ENE 11 15 6 8 1018.6 1017.6 -
26/05:30pm 14.5 12.2 10.4 76 2.2 E 13 17 7 9 1018.5 1017.5 -
26/05:00pm 14.2 11.1 10.3 77 2.1 NE 17 24 9 13 1018.4 1017.4 -
26/04:30pm 13.6 10.0 10.4 81 1.7 ENE 20 28 11 15 1018.5 1017.5 -
26/04:00pm 12.9 8.3 10.9 88 1.1 E 26 37 14 20 1018.1 1017.1 -
26/03:30pm 11.9 7.9 10.6 92 0.7 ENE 22 33 12 18 1018.9 1018.0 -
26/03:00pm 11.5 7.2 10.6 94 0.5 E 24 32 13 17 1019.1 1018.1 8.0
26/02:30pm 11.4 6.7 10.5 94 0.5 E 26 39 14 21 1019.3 1018.3 -
26/02:00pm 11.5 6.8 10.6 94 0.5 E 26 37 14 20 1019.9 1018.9 -
26/01:30pm 11.2 6.9 10.6 96 0.3 E 24 33 13 18 1020.9 1019.9 -
26/01:00pm 11.1 8.1 10.7 97 0.2 E 17 24 9 13 1021.9 1021.0 -
26/12:30pm 10.9 8.2 10.5 97 0.2 SSE 15 20 8 11 1022.9 1021.9 -
26/12:00pm 11.0 7.6 10.4 96 0.3 SE 19 26 10 14 1021.6 1020.7 -
26/11:30am 11.1 6.2 10.1 94 0.5 ESE 26 35 14 19 1021.6 1020.7 -
26/11:00am 11.3 7.0 10.7 96 0.3 SE 24 33 13 18 1022.2 1021.3 -
26/10:43am 11.2 7.6 10.4 95 0.4 S 20 30 11 16 1022.4 1021.5 1.0
26/10:30am 11.6 6.7 9.9 89 0.9 S 26 35 14 19 1022.9 1021.9 -
26/10:00am 12.2 8.2 8.9 80 1.7 SSE 20 32 11 17 1021.5 1020.5 -
26/09:30am 12.1 8.6 8.6 79 1.8 S 17 28 9 15 1022.0 1021.1 0.2
26/09:00am 12.2 9.3 8.3 77 2.0 SSE 13 20 7 11 1021.1 1020.1 0.6
26/08:30am 11.9 9.0 8.1 77 1.9 SSE 13 17 7 9 1019.7 1018.7 0.6
26/08:00am 11.6 7.4 8.2 79 1.7 S 20 26 11 14 1018.3 1017.3 0.6
26/07:30am 11.2 8.0 8.4 83 1.4 ESE 15 22 8 12 1017.5 1016.5 0.6
26/07:00am 11.1 7.6 8.8 86 1.2 E 17 24 9 13 1017.7 1016.7 0.6
26/06:30am 11.1 8.8 9.0 87 1.1 ESE 11 17 6 9 1017.5 1016.5 0.6
26/06:00am 11.2 7.4 9.1 87 1.1 SE 19 24 10 13 1017.4 1016.4 0.6
26/05:30am 11.3 8.2 9.0 86 1.2 SE 15 20 8 11 1017.3 1016.3 0.6
26/05:00am 11.3 9.1 9.4 88 1.0 ESE 11 15 6 8 1017.8 1016.8 0.6
26/04:30am 11.5 9.6 9.2 86 1.2 E 9 15 5 8 1017.9 1016.9 0.6
26/04:00am 11.7 9.1 9.4 86 1.2 SE 13 17 7 9 1017.9 1016.9 0.6
26/03:30am 11.9 9.7 9.4 85 1.3 ESE 11 15 6 8 1018.0 1017.0 0.6
26/03:00am 12.1 9.7 8.8 80 1.7 SE 11 15 6 8 1018.2 1017.2 0.4
26/02:30am 12.4 9.3 8.7 78 1.9 ESE 15 19 8 10 1018.3 1017.3 0.4
26/02:00am 12.8 9.3 8.7 76 2.1 SE 17 24 9 13 1018.4 1017.4 0.4
26/01:30am 12.8 8.9 8.7 76 2.1 SE 19 28 10 15 1018.4 1017.4 0.4
26/01:00am 12.8 8.9 8.7 76 2.1 SE 19 26 10 14 1018.6 1017.6 0.4
26/12:30am 12.5 9.1 9.0 79 1.8 SE 17 26 9 14 1018.9 1018.0 0.4
26/12:00am 12.1 8.7 9.0 81 1.6 ESE 17 24 9 13 1019.3 1018.3 0.4
 
Date/Time
CST
Temp
°C
App
Temp
°C
Dew
Point
°C
Rel
Hum
%
Delta-T
°C
Wind Press
QNH
hPa
Press
MSL
hPa
Rain since
9am
mm
Dir  Spd
km/h
Gust
km/h
Spd
kts
Gust
kts
25/11:30pm 11.8 8.8 9.1 83 1.4 SE 15 20 8 11 1019.4 1018.4 0.4
25/11:00pm 12.1 8.7 9.2 82 1.5 SE 17 22 9 12 1019.7 1018.7 0.4
25/10:30pm 12.3 8.9 9.0 80 1.7 ESE 17 26 9 14 1019.5 1018.5 0.4
25/10:00pm 12.9 9.2 9.3 79 1.9 ESE 19 26 10 14 1019.4 1018.4 0.4
25/09:30pm 13.3 10.5 9.9 80 1.8 SE 15 20 8 11 1019.4 1018.4 0.4
25/09:00pm 13.5 11.0 9.7 78 2.0 SE 13 19 7 10 1019.3 1018.3 0.4
25/08:30pm 13.9 11.0 9.8 76 2.2 SE 15 20 8 11 1018.8 1017.9 0.4
25/08:00pm 14.6 11.3 9.7 72 2.6 SE 17 22 9 12 1018.6 1017.6 0.4
25/07:30pm 15.6 12.1 10.2 70 2.9 SSE 19 26 10 14 1018.4 1017.4 0.4
25/07:00pm 16.7 13.8 10.9 68 3.2 SSE 17 22 9 12 1018.4 1017.4 0.4
25/06:30pm 17.3 14.6 11.6 69 3.2 SSE 17 26 9 14 1018.1 1017.1 0.4
25/06:00pm 18.4 17.1 11.1 62 4.1 SSE 9 13 5 7 1017.6 1016.6 0.4
25/05:30pm 19.0 17.0 10.1 56 4.9 SE 11 15 6 8 1017.4 1016.4 0.4
25/05:00pm 19.4 17.2 9.5 52 5.4 E 11 15 6 8 1017.1 1016.1 0.4
25/04:30pm 19.4 16.7 10.4 56 5.0 ENE 15 20 8 11 1017.1 1016.1 0.4
25/04:00pm 19.3 17.0 10.5 56 4.9 E 13 17 7 9 1017.1 1016.1 0.4
25/03:30pm 18.4 15.1 9.6 56 4.8 E 17 22 9 12 1017.1 1016.1 0.4
25/03:00pm 17.8 14.3 10.1 60 4.2 E 19 24 10 13 1017.3 1016.3 0.4
25/02:30pm 17.4 13.9 10.1 62 4.0 E 19 26 10 14 1017.7 1016.7 0.4
25/02:00pm 17.2 14.3 11.1 67 3.4 E 17 26 9 14 1018.1 1017.1 0.4
25/01:30pm 16.2 13.9 11.7 74 2.5 ESE 15 24 8 13 1018.6 1017.6 0.4
25/01:00pm 16.0 14.6 12.1 77 2.2 ESE 11 15 6 8 1019.4 1018.4 0.2
25/12:30pm 16.2 14.0 10.9 71 2.9 E 13 17 7 9 1019.8 1018.8 0.0
25/12:00pm 15.8 13.2 10.7 71 2.8 E 15 20 8 11 1020.1 1019.2 0.0
25/11:30am 16.2 13.7 9.7 65 3.5 E 13 17 7 9 1020.5 1019.6 0.0
25/11:00am 15.6 13.2 10.2 70 2.9 E 13 19 7 10 1020.4 1019.5 0.0
25/10:30am 15.2 13.6 11.4 78 2.1 SE 11 15 6 8 1020.3 1019.4 0.0
25/10:00am 15.9 14.2 10.0 68 3.2 ESE 9 11 5 6 1020.3 1019.4 0.0
25/09:30am 16.4 13.6 7.0 53 4.8 ENE 11 15 6 8 1019.9 1018.9 0.0
25/09:00am 15.7 13.6 8.2 61 3.9 E 9 13 5 7 1019.4 1018.4 0.4
25/08:30am 14.8 13.0 9.3 69 2.9 ENE 9 13 5 7 1019.2 1018.2 0.2
25/08:00am 13.9 12.4 10.4 79 1.9 ESE 9 13 5 7 1018.6 1017.6 0.2
25/07:30am 14.4 12.9 9.3 71 2.7 ESE 7 9 4 5 1018.4 1017.4 0.0
25/07:00am 14.7 12.3 8.8 68 3.1 ESE 11 13 6 7 1018.1 1017.1 0.0
25/06:30am 15.6 13.3 7.4 58 4.2 SE 9 11 5 6 1018.0 1017.0 0.0
25/06:00am 15.7 13.1 6.1 53 4.8 SSE 9 11 5 6 1017.7 1016.7 0.0
25/05:30am 17.2 13.4 3.9 41 6.4 SE 13 17 7 9 1017.4 1016.4 0.0
25/05:00am 16.4 13.1 4.4 45 5.8 ESE 11 13 6 7 1017.3 1016.3 0.0
25/04:30am 16.1 13.7 5.1 48 5.4 NE 7 11 4 6 1017.4 1016.4 0.0
25/04:00am 16.3 13.9 5.1 47 5.5 NE 7 13 4 7 1017.6 1016.6 0.0
25/03:30am 16.1 13.3 5.1 48 5.4 SE 9 13 5 7 1017.8 1016.8 0.0
25/03:00am 16.4 12.7 4.7 46 5.7 ESE 13 17 7 9 1017.9 1016.9 0.0
25/02:30am 16.4 12.0 4.7 46 5.7 ESE 17 20 9 11 1017.9 1016.9 0.0
25/02:00am 16.6 12.6 4.7 45 5.8 ESE 15 20 8 11 1017.8 1016.8 0.0
25/01:30am 16.7 11.8 4.9 45 5.8 ESE 20 28 11 15 1018.0 1017.0 0.0
25/01:00am 16.9 13.3 4.9 45 5.9 ESE 13 20 7 11 1018.5 1017.5 0.0
25/12:30am 17.1 13.9 4.9 44 6.0 SE 11 15 6 8 1019.3 1018.3 0.0
25/12:00am 17.2 14.0 5.3 45 5.9 SE 11 15 6 8 1018.3 1017.3 0.0
 
Date/Time
CST
Temp
°C
App
Temp
°C
Dew
Point
°C
Rel
Hum
%
Delta-T
°C
Wind Press
QNH
hPa
Press
MSL
hPa
Rain since
9am
mm
Dir  Spd
km/h
Gust
km/h
Spd
kts
Gust
kts
24/11:30pm 17.6 14.0 5.1 43 6.2 ESE 13 19 7 10 1018.4 1017.4 0.0
24/11:00pm 17.9 14.2 4.7 41 6.5 ESE 13 20 7 11 1018.4 1017.4 0.0
24/10:30pm 18.2 14.1 4.6 40 6.7 SE 15 20 8 11 1018.4 1017.4 0.0
24/10:00pm 18.1 14.9 5.0 42 6.5 ESE 11 17 6 9 1018.2 1017.2 0.0
24/09:30pm 19.0 14.6 4.7 39 7.1 SE 17 26 9 14 1018.2 1017.2 0.0
24/09:00pm 18.8 15.0 4.1 37 7.2 SSE 13 20 7 11 1018.0 1017.0 0.0
24/08:30pm 19.5 16.2 4.6 37 7.4 SE 11 13 6 7 1017.9 1016.9 0.0
24/08:00pm 20.5 18.1 4.5 35 8.0 SE 6 11 3 6 1017.9 1016.9 0.0
24/07:30pm 20.6 19.3 6.0 38 7.5 E 2 6 1 3 1017.7 1016.7 0.0
24/07:00pm 20.9 18.1 5.1 35 8.0 SSE 9 9 5 5 1017.3 1016.3 0.0
24/06:30pm 22.1 19.2 4.5 31 8.9 S 9 11 5 6 1016.9 1015.9 0.0
24/06:00pm 22.9 20.8 3.7 28 9.6 W 4 9 2 5 1016.7 1015.7 0.0
24/05:30pm 24.3 21.8 3.7 26 10.4 NW 6 9 3 5 1016.8 1015.8 0.0
24/05:00pm 24.8 21.1 2.3 23 11.1 N 11 15 6 8 1016.8 1015.8 0.0
24/04:30pm 25.3 22.1 3.0 23 11.2 NNW 9 13 5 7 1016.4 1015.4 0.0
24/04:00pm 25.1 21.4 2.2 22 11.3 NNW 11 15 6 8 1016.6 1015.6 0.0
24/03:30pm 25.5 21.8 2.3 22 11.5 NNW 11 15 6 8 1016.8 1015.8 0.0
24/03:00pm 25.3 22.2 3.6 24 11.0 N 9 15 5 8 1016.6 1015.6 0.0
24/02:30pm 25.0 20.5 2.4 23 11.2 N 15 22 8 12 1016.9 1015.9 0.0
24/02:00pm 24.9 20.9 2.9 24 11.0 N 13 19 7 10 1017.1 1016.1 0.0
24/01:30pm 25.1 21.5 3.2 24 11.0 N 11 24 6 13 1017.9 1016.9 0.0
24/01:00pm 24.5 20.4 2.1 23 11.0 NNE 13 20 7 11 1018.4 1017.4 0.0
24/12:30pm 24.1 20.1 2.6 24 10.6 NNE 13 22 7 12 1018.8 1017.9 0.0
24/12:00pm 22.7 18.7 2.7 27 9.8 ENE 13 22 7 12 1019.2 1018.2 0.0
24/11:30am 21.8 17.3 2.4 28 9.4 E 15 20 8 11 1019.6 1018.6 0.0
24/11:00am 21.1 17.1 3.0 30 8.8 ENE 13 20 7 11 1020.1 1019.2 0.0
24/10:30am 19.8 15.1 3.0 33 8.1 E 17 24 9 13 1020.0 1019.0 0.0
24/10:00am 18.6 15.1 3.5 36 7.3 E 11 20 6 11 1020.0 1019.0 0.0
24/09:30am 16.1 13.3 5.1 48 5.4 SE 9 13 5 7 1019.9 1018.9 0.0
24/09:00am 13.4 10.2 5.3 58 3.9 E 11 15 6 8 1019.8 1018.8 0.0
24/08:30am 12.2 9.4 5.0 61 3.4 E 9 15 5 8 1019.6 1018.6 0.0
24/08:00am 11.2 8.4 5.1 66 2.9 E 9 13 5 7 1019.2 1018.2 0.0
24/07:30am 10.5 7.6 4.9 68 2.6 ESE 9 11 5 6 1018.9 1018.0 0.0
24/07:00am 11.1 8.2 4.9 65 2.9 ESE 9 11 5 6 1018.5 1017.5 0.0
24/06:30am 11.8 9.0 5.0 63 3.2 E 9 13 5 7 1018.6 1017.6 0.0
24/06:00am 11.8 8.5 4.8 62 3.3 ESE 11 13 6 7 1018.4 1017.4 0.0
24/05:30am 12.2 8.6 4.8 60 3.5 ESE 13 17 7 9 1018.5 1017.5 0.0
24/05:00am 12.8 8.8 4.8 58 3.8 E 15 19 8 10 1018.2 1017.2 0.0
24/04:30am 13.4 9.7 4.6 55 4.2 ESE 13 17 7 9 1018.5 1017.5 0.0
24/04:00am 13.9 10.2 4.4 52 4.5 E 13 20 7 11 1018.6 1017.6 0.0
24/03:30am 14.2 10.5 4.3 51 4.7 SE 13 15 7 8 1018.8 1017.9 0.0
24/03:00am 14.9 10.8 4.2 48 5.1 SE 15 20 8 11 1018.8 1017.9 0.0
24/02:30am 14.9 11.2 4.2 48 5.1 SE 13 20 7 11 1019.1 1018.1 0.0
24/02:00am 14.8 11.5 4.3 49 5.0 SSE 11 13 6 7 1019.4 1018.4 0.0
24/01:30am 15.6 12.3 4.4 47 5.4 SE 11 13 6 7 1019.3 1018.3 0.0
24/01:00am 16.7 12.9 4.0 43 6.1 ESE 13 17 7 9 1019.3 1018.3 0.0
24/12:30am 17.3 12.7 3.8 40 6.5 ESE 17 24 9 13 1019.2 1018.2 0.0
24/12:00am 17.5 12.8 3.2 38 6.8 ESE 17 24 9 13 1019.4 1018.4 0.0
 
Date/Time
CST
Temp
°C
App
Temp
°C
Dew
Point
°C
Rel
Hum
%
Delta-T
°C
Wind Press
QNH
hPa
Press
MSL
hPa
Rain since
9am
mm
Dir  Spd
km/h
Gust
km/h
Spd
kts
Gust
kts
23/11:30pm 17.9 12.6 3.0 37 7.1 ESE 20 28 11 15 1019.4 1018.4 0.0

Other Formats:

Comma delimited format used in spreadsheet applications
http://www.bom.gov.au/fwo/IDD60801/IDD60801.94461.axf

JavaScript Object Notation format (JSON) in row-major order
http://www.bom.gov.au/fwo/IDD60801/IDD60801.94461.json